createdAt,value
2019-04-07T00:00:39.316Z,12.94
2019-04-07T00:01:38.664Z,12.85
2019-04-07T00:02:38.660Z,12.86
2019-04-07T00:03:38.983Z,12.86
2019-04-07T00:04:38.654Z,12.80
2019-04-07T00:05:38.905Z,12.76
2019-04-07T00:06:38.648Z,12.79
2019-04-07T00:07:39.011Z,12.80
2019-04-07T00:08:38.684Z,12.85
2019-04-07T00:09:38.737Z,12.78
2019-04-07T00:10:38.637Z,12.82
2019-04-07T00:11:38.635Z,12.79
2019-04-07T00:12:38.631Z,12.83
2019-04-07T00:13:38.628Z,12.86
2019-04-07T00:14:39.151Z,12.78
2019-04-07T00:15:38.954Z,12.85
2019-04-07T00:16:39.065Z,12.82
2019-04-07T00:17:38.753Z,12.80
2019-04-07T00:18:38.841Z,12.79
2019-04-07T00:19:38.919Z,12.80
2019-04-07T00:20:38.713Z,12.80
2019-04-07T00:21:38.660Z,12.83
2019-04-07T00:22:38.603Z,12.83
2019-04-07T00:23:38.915Z,12.80
2019-04-07T00:24:39.202Z,12.76
2019-04-07T00:25:38.631Z,12.80
2019-04-07T00:26:38.590Z,12.82
2019-04-07T00:27:39.126Z,12.87
2019-04-07T00:28:38.584Z,12.86
2019-04-07T00:29:39.348Z,12.86
2019-04-07T00:30:38.577Z,12.94
2019-04-07T00:31:38.645Z,13.01
2019-04-07T00:32:38.803Z,13.03
2019-04-07T00:33:38.568Z,13.04
2019-04-07T00:34:39.695Z,13.00
2019-04-07T00:35:38.903Z,12.97
2019-04-07T00:36:38.560Z,12.91
2019-04-07T00:37:38.556Z,12.93
2019-04-07T00:38:38.552Z,13.00
2019-04-07T00:39:38.816Z,13.04
2019-04-07T00:40:39.128Z,12.95
2019-04-07T00:41:38.745Z,13.03
2019-04-07T00:42:39.061Z,13.12
2019-04-07T00:43:38.537Z,12.98
2019-04-07T00:44:38.986Z,13.11
2019-04-07T00:45:38.545Z,13.05
2019-04-07T00:46:38.590Z,13.05
2019-04-07T00:47:38.852Z,13.12
2019-04-07T00:48:38.634Z,13.12
2019-04-07T00:49:38.532Z,13.08
2019-04-07T00:50:38.518Z,13.12
2019-04-07T00:51:38.513Z,13.16
2019-04-07T00:52:39.079Z,13.13
2019-04-07T00:53:38.834Z,13.13
2019-04-07T00:54:39.094Z,13.12
2019-04-07T00:55:38.596Z,13.19
2019-04-07T00:56:39.080Z,13.22
2019-04-07T00:57:38.494Z,13.30
2019-04-07T00:58:39.062Z,13.31
2019-04-07T00:59:38.603Z,13.37
2019-04-07T01:00:38.800Z,13.27
2019-04-07T01:01:38.482Z,13.30
2019-04-07T01:02:38.823Z,13.39
2019-04-07T01:03:39.130Z,13.47
2019-04-07T01:04:38.475Z,13.46
2019-04-07T01:05:40.775Z,13.44
2019-04-07T01:06:38.466Z,13.46
2019-04-07T01:07:38.897Z,13.52
2019-04-07T01:08:38.461Z,13.52
2019-04-07T01:09:38.688Z,13.54
2019-04-07T01:10:38.458Z,13.54
2019-04-07T01:11:38.493Z,13.52
2019-04-07T01:12:38.575Z,13.46
2019-04-07T01:13:38.545Z,13.44
2019-04-07T01:14:38.906Z,13.41
2019-04-07T01:15:38.517Z,13.44
2019-04-07T01:16:38.435Z,13.44
2019-04-07T01:17:39.147Z,13.33
2019-04-07T01:18:38.430Z,13.44
2019-04-07T01:19:38.425Z,13.35
2019-04-07T01:20:38.422Z,13.38
2019-04-07T01:21:38.418Z,13.42
2019-04-07T01:22:38.417Z,13.33
2019-04-07T01:23:38.955Z,13.46
2019-04-07T01:24:38.410Z,13.47
2019-04-07T01:25:39.425Z,13.41
2019-04-07T01:26:38.414Z,13.37
2019-04-07T01:27:39.002Z,13.44
2019-04-07T01:28:38.397Z,13.42
2019-04-07T01:29:38.725Z,13.33
2019-04-07T01:30:38.389Z,13.33
2019-04-07T01:31:38.388Z,13.31
2019-04-07T01:32:38.787Z,13.22
2019-04-07T01:33:38.916Z,13.22
2019-04-07T01:34:38.379Z,13.30
2019-04-07T01:35:46.189Z,13.27
2019-04-07T01:36:38.373Z,13.20
2019-04-07T01:37:38.369Z,13.12
2019-04-07T01:38:38.366Z,13.03
2019-04-07T01:39:38.363Z,13.13
2019-04-07T01:40:39.005Z,13.20
2019-04-07T01:41:38.364Z,13.16
2019-04-07T01:42:38.352Z,13.16
2019-04-07T01:43:38.349Z,13.20
2019-04-07T01:44:38.721Z,13.11
2019-04-07T01:45:38.345Z,13.15
2019-04-07T01:46:38.342Z,12.98
2019-04-07T01:47:38.468Z,13.01
2019-04-07T01:48:38.849Z,12.91
2019-04-07T01:49:38.329Z,13.13
2019-04-07T01:50:38.515Z,13.08
2019-04-07T01:51:38.325Z,13.04
2019-04-07T01:52:38.320Z,13.15
2019-04-07T01:53:38.597Z,13.09
2019-04-07T01:54:38.405Z,13.16
2019-04-07T01:55:38.753Z,13.20
2019-04-07T01:56:38.435Z,13.23
2019-04-07T01:57:38.867Z,13.39
2019-04-07T01:58:38.301Z,13.31
2019-04-07T01:59:39.192Z,13.46
2019-04-07T02:00:38.297Z,13.47
2019-04-07T02:01:38.483Z,13.41
2019-04-07T02:02:38.288Z,13.54
2019-04-07T02:03:38.284Z,13.62
2019-04-07T02:04:38.865Z,13.60
2019-04-07T02:05:38.558Z,13.46
2019-04-07T02:06:38.322Z,13.44
2019-04-07T02:07:39.060Z,13.39
2019-04-07T02:08:38.619Z,13.42
2019-04-07T02:09:38.267Z,13.42
2019-04-07T02:10:38.265Z,13.33
2019-04-07T02:11:38.618Z,13.30
2019-04-07T02:12:38.256Z,13.25
2019-04-07T02:13:38.257Z,13.16
2019-04-07T02:14:39.310Z,13.18
2019-04-07T02:15:38.265Z,13.27
2019-04-07T02:16:38.242Z,13.23
2019-04-07T02:17:38.238Z,13.31
2019-04-07T02:18:38.828Z,13.33
2019-04-07T02:19:38.234Z,13.22
2019-04-07T02:20:38.716Z,13.37
2019-04-07T02:21:38.227Z,13.31
2019-04-07T02:22:38.597Z,13.30
2019-04-07T02:23:38.223Z,13.30
2019-04-07T02:24:38.739Z,13.25
2019-04-07T02:25:38.214Z,13.20
2019-04-07T02:26:38.976Z,13.33
2019-04-07T02:27:38.359Z,13.56
2019-04-07T02:28:38.338Z,13.57
2019-04-07T02:29:38.808Z,13.70
2019-04-07T02:30:39.190Z,13.56
2019-04-07T02:31:38.297Z,13.46
2019-04-07T02:32:38.202Z,13.37
2019-04-07T02:33:39.320Z,13.23
2019-04-07T02:34:38.187Z,13.19
2019-04-07T02:35:38.182Z,13.18
2019-04-07T02:36:38.754Z,13.20
2019-04-07T02:37:38.755Z,13.11
2019-04-07T02:38:38.896Z,13.12
2019-04-07T02:39:38.693Z,13.13
2019-04-07T02:40:38.370Z,13.25
2019-04-07T02:41:38.161Z,13.22
2019-04-07T02:42:38.376Z,13.15
2019-04-07T02:43:38.416Z,13.20
2019-04-07T02:44:38.912Z,13.13
2019-04-07T02:45:38.347Z,13.12
2019-04-07T02:46:38.223Z,12.98
2019-04-07T02:47:38.144Z,12.94
2019-04-07T02:48:38.144Z,12.80
2019-04-07T02:49:39.285Z,12.78
2019-04-07T02:50:38.587Z,12.85
2019-04-07T02:51:38.384Z,12.98
2019-04-07T02:52:38.856Z,13.28
2019-04-07T02:53:39.091Z,13.27
2019-04-07T02:54:38.118Z,13.25
2019-04-07T02:55:38.126Z,13.22
2019-04-07T02:56:38.114Z,13.20
2019-04-07T02:57:38.210Z,13.13
2019-04-07T02:58:38.108Z,13.19
2019-04-07T02:59:41.027Z,13.12
2019-04-07T03:00:38.099Z,13.13
2019-04-07T03:01:38.300Z,13.11
2019-04-07T03:02:39.201Z,13.04
2019-04-07T03:03:39.189Z,13.12
2019-04-07T03:04:38.421Z,13.00
2019-04-07T03:05:38.083Z,12.90
2019-04-07T03:06:45.768Z,12.79
2019-04-07T03:07:38.999Z,12.80
2019-04-07T03:08:38.071Z,12.79
2019-04-07T03:09:38.069Z,12.86
2019-04-07T03:10:38.548Z,12.79
2019-04-07T03:11:38.062Z,12.95
2019-04-07T03:12:38.056Z,12.76
2019-04-07T03:13:38.188Z,12.73
2019-04-07T03:14:39.145Z,12.67
2019-04-07T03:15:38.812Z,12.65
2019-04-07T03:16:38.045Z,12.67
2019-04-07T03:17:38.047Z,12.65
2019-04-07T03:18:38.910Z,12.65
2019-04-07T03:19:38.032Z,12.67
2019-04-07T03:20:39.132Z,12.65
2019-04-07T03:21:38.250Z,12.65
2019-04-07T03:22:38.462Z,12.65
2019-04-07T03:23:38.368Z,12.62
2019-04-07T03:24:38.016Z,12.57
2019-04-07T03:25:38.650Z,12.58
2019-04-07T03:26:38.009Z,12.57
2019-04-07T03:27:38.170Z,12.45
2019-04-07T03:28:38.001Z,12.39
2019-04-07T03:29:38.433Z,12.43
2019-04-07T03:30:40.039Z,12.40
2019-04-07T03:31:38.864Z,12.42
2019-04-07T03:32:40.286Z,12.43
2019-04-07T03:33:40.775Z,12.58
2019-04-07T03:34:38.959Z,12.49
2019-04-07T03:35:40.231Z,12.55
2019-04-07T03:37:09.664Z,12.39
2019-04-07T03:37:43.389Z,12.42
2019-04-07T03:38:38.465Z,12.31
2019-04-07T03:39:38.210Z,12.37
2019-04-07T03:40:37.972Z,12.39
2019-04-07T03:41:38.511Z,12.43
2019-04-07T03:42:38.489Z,12.37
2019-04-07T03:43:38.011Z,12.29
2019-04-07T03:44:37.946Z,12.32
2019-04-07T03:45:38.051Z,12.36
2019-04-07T03:46:38.841Z,12.27
2019-04-07T03:47:37.949Z,12.20
2019-04-07T03:48:38.022Z,12.12
2019-04-07T03:49:38.070Z,12.04
2019-04-07T03:50:38.661Z,12.04
2019-04-07T03:51:37.935Z,11.95
2019-04-07T03:52:37.947Z,11.84
2019-04-07T03:53:37.913Z,11.80
2019-04-07T03:54:37.938Z,11.80
2019-04-07T03:55:38.510Z,11.86
2019-04-07T03:56:37.900Z,11.78
2019-04-07T03:57:38.977Z,11.69
2019-04-07T03:58:37.894Z,11.57
2019-04-07T03:59:38.390Z,11.54
2019-04-07T04:00:37.896Z,11.48
2019-04-07T04:01:37.886Z,11.35
2019-04-07T04:02:38.065Z,11.37
2019-04-07T04:03:38.600Z,11.22
2019-04-07T04:04:37.871Z,11.35
2019-04-07T04:05:37.877Z,11.22
2019-04-07T04:06:38.781Z,11.14
2019-04-07T04:07:38.730Z,11.08
2019-04-07T04:08:38.291Z,11.02
2019-04-07T04:09:39.744Z,11.08
2019-04-07T04:10:38.502Z,10.99
2019-04-07T04:11:37.843Z,11.02
2019-04-07T04:12:37.900Z,11.07
2019-04-07T04:13:37.960Z,10.97
2019-04-07T04:14:37.899Z,10.93
2019-04-07T04:15:38.210Z,10.99
2019-04-07T04:16:37.822Z,11.00
2019-04-07T04:17:37.826Z,11.02
2019-04-07T04:18:37.816Z,11.07
2019-04-07T04:19:37.814Z,10.96
2019-04-07T04:20:38.739Z,11.14
2019-04-07T04:21:38.185Z,11.23
2019-04-07T04:22:37.993Z,11.22
2019-04-07T04:23:41.316Z,11.23
2019-04-07T04:24:38.103Z,11.22
2019-04-07T04:25:38.507Z,11.15
2019-04-07T04:26:37.996Z,11.22
2019-04-07T04:27:38.601Z,11.17
2019-04-07T04:28:37.775Z,11.14
2019-04-07T04:29:37.773Z,11.08
2019-04-07T04:30:37.766Z,11.07
2019-04-07T04:31:37.765Z,11.08
2019-04-07T04:32:37.758Z,10.99
2019-04-07T04:33:37.915Z,10.99
2019-04-07T04:34:37.753Z,10.99
2019-04-07T04:35:38.788Z,11.00
2019-04-07T04:36:38.064Z,11.00
2019-04-07T04:37:44.225Z,10.81
2019-04-07T04:38:38.440Z,10.90
2019-04-07T04:39:38.657Z,10.78
2019-04-07T04:40:37.725Z,10.82
2019-04-07T04:41:37.731Z,10.75
2019-04-07T04:42:37.759Z,10.71
2019-04-07T04:43:38.087Z,10.63
2019-04-07T04:44:37.985Z,10.72
2019-04-07T04:45:38.650Z,10.78
2019-04-07T04:46:38.670Z,10.87
2019-04-07T04:47:38.115Z,10.92
2019-04-07T04:48:38.643Z,10.96
2019-04-07T04:49:38.419Z,10.92
2019-04-07T04:50:38.442Z,10.79
2019-04-07T04:51:39.525Z,10.92
2019-04-07T04:52:38.298Z,10.78
2019-04-07T04:53:38.158Z,10.81
2019-04-07T04:54:37.669Z,10.78
2019-04-07T04:55:37.666Z,10.75
2019-04-07T04:56:37.663Z,10.71
2019-04-07T04:57:37.675Z,10.68
2019-04-07T04:58:38.128Z,10.60
2019-04-07T04:59:37.646Z,10.54
2019-04-07T05:00:38.301Z,10.64
2019-04-07T05:01:37.870Z,10.67
2019-04-07T05:02:38.141Z,10.72
2019-04-07T05:03:38.247Z,10.75
2019-04-07T05:04:38.315Z,10.69
2019-04-07T05:05:38.036Z,10.72
2019-04-07T05:06:37.895Z,10.78
2019-04-07T05:07:50.216Z,10.64
2019-04-07T05:08:37.891Z,10.69
2019-04-07T05:09:44.244Z,10.82
2019-04-07T05:10:37.599Z,10.86
2019-04-07T05:11:37.593Z,10.76
2019-04-07T05:12:37.914Z,10.78
2019-04-07T05:13:37.595Z,10.75
2019-04-07T05:14:37.818Z,10.69
2019-04-07T05:15:37.847Z,10.82
2019-04-07T05:16:37.574Z,10.79
2019-04-07T05:17:38.058Z,10.86
2019-04-07T05:18:38.238Z,10.79
2019-04-07T05:19:37.557Z,10.82
2019-04-07T05:20:37.681Z,10.75
2019-04-07T05:21:37.753Z,10.72
2019-04-07T05:22:38.015Z,10.72
2019-04-07T05:23:37.541Z,10.76
2019-04-07T05:24:37.667Z,10.87
2019-04-07T05:25:37.788Z,10.92
2019-04-07T05:26:37.715Z,10.97
2019-04-07T05:27:38.174Z,11.02
2019-04-07T05:28:38.038Z,11.27
2019-04-07T05:29:37.513Z,11.23
2019-04-07T05:30:37.953Z,11.35
2019-04-07T05:31:37.983Z,11.30
2019-04-07T05:32:37.784Z,11.35
2019-04-07T05:33:37.497Z,11.27
2019-04-07T05:34:37.790Z,11.43
2019-04-07T05:35:37.940Z,11.45
2019-04-07T05:36:37.938Z,11.50
2019-04-07T05:37:37.484Z,11.48
2019-04-07T05:38:37.752Z,11.50
2019-04-07T05:39:37.471Z,11.43
2019-04-07T05:40:37.466Z,11.54
2019-04-07T05:41:37.461Z,11.66
2019-04-07T05:42:37.939Z,11.70
2019-04-07T05:43:38.110Z,11.84
2019-04-07T05:44:37.448Z,11.87
2019-04-07T05:45:37.683Z,11.88
2019-04-07T05:46:40.302Z,11.81
2019-04-07T05:47:37.496Z,11.94
2019-04-07T05:48:38.222Z,12.02
2019-04-07T05:49:37.784Z,12.02
2019-04-07T05:50:37.427Z,12.21
2019-04-07T05:51:37.421Z,12.42
2019-04-07T05:52:39.640Z,12.58
2019-04-07T05:53:37.714Z,12.54
2019-04-07T05:54:37.829Z,12.54
2019-04-07T05:55:37.408Z,12.65
2019-04-07T05:56:37.983Z,12.73
2019-04-07T05:57:37.793Z,12.73
2019-04-07T05:58:38.688Z,12.76
2019-04-07T05:59:37.657Z,12.73
2019-04-07T06:00:37.384Z,12.67
2019-04-07T06:01:37.381Z,12.61
2019-04-07T06:02:37.505Z,12.55
2019-04-07T06:03:41.066Z,12.62
2019-04-07T06:04:37.367Z,12.67
2019-04-07T06:05:37.663Z,12.80
2019-04-07T06:06:39.884Z,12.70
2019-04-07T06:07:37.818Z,12.82
2019-04-07T06:08:39.189Z,12.86
2019-04-07T06:09:37.366Z,12.86
2019-04-07T06:10:38.640Z,12.91
2019-04-07T06:11:37.882Z,13.15
2019-04-07T06:12:40.646Z,13.27
2019-04-07T06:13:37.944Z,13.38
2019-04-07T06:14:37.968Z,13.30
2019-04-07T06:15:38.135Z,13.49
2019-04-07T06:16:37.777Z,13.31
2019-04-07T06:17:37.865Z,13.44
2019-04-07T06:18:37.863Z,13.46
2019-04-07T06:19:40.577Z,13.47
2019-04-07T06:20:37.841Z,13.67
2019-04-07T06:21:37.824Z,13.74
2019-04-07T06:22:37.300Z,13.79
2019-04-07T06:23:37.528Z,13.72
2019-04-07T06:24:37.290Z,13.74
2019-04-07T06:25:41.499Z,13.79
2019-04-07T06:26:40.636Z,13.79
2019-04-07T06:27:37.283Z,13.83
2019-04-07T06:28:37.278Z,13.95
2019-04-07T06:29:37.752Z,14.00
2019-04-07T06:30:37.898Z,14.04
2019-04-07T06:31:37.951Z,14.11
2019-04-07T06:32:38.498Z,14.14
2019-04-07T06:33:38.201Z,14.17
2019-04-07T06:34:39.738Z,14.15
2019-04-07T06:35:37.968Z,13.96
2019-04-07T06:36:37.535Z,13.97
2019-04-07T06:37:37.411Z,14.00
2019-04-07T06:38:41.571Z,13.96
2019-04-07T06:39:37.360Z,13.95
2019-04-07T06:40:37.268Z,14.03
2019-04-07T06:41:37.762Z,13.93
2019-04-07T06:42:37.583Z,14.23
2019-04-07T06:43:38.413Z,14.29
2019-04-07T06:44:37.705Z,14.32
2019-04-07T06:45:37.221Z,14.40
2019-04-07T06:46:37.890Z,14.36
2019-04-07T06:47:37.215Z,14.29
2019-04-07T06:48:39.067Z,14.48
2019-04-07T06:49:37.208Z,14.44
2019-04-07T06:50:47.528Z,14.48
2019-04-07T06:51:37.285Z,14.63
2019-04-07T06:52:40.612Z,14.66
2019-04-07T06:53:37.197Z,14.77
2019-04-07T06:54:37.562Z,14.85
2019-04-07T06:55:37.190Z,14.94
2019-04-07T06:56:37.865Z,14.91
2019-04-07T06:57:37.727Z,14.99
2019-04-07T06:58:40.855Z,15.00
2019-04-07T06:59:37.250Z,15.00
2019-04-07T07:00:37.464Z,15.00
2019-04-07T07:01:37.377Z,15.18
2019-04-07T07:02:37.169Z,15.11
2019-04-07T07:03:38.711Z,15.17
2019-04-07T07:04:37.708Z,15.27
2019-04-07T07:05:37.161Z,15.24
2019-04-07T07:06:37.354Z,15.27
2019-04-07T07:07:37.935Z,15.31
2019-04-07T07:08:44.527Z,15.27
2019-04-07T07:09:38.758Z,15.33
2019-04-07T07:10:39.001Z,15.44
2019-04-07T07:11:40.856Z,15.39
2019-04-07T07:12:39.096Z,15.46
2019-04-07T07:13:41.344Z,15.55
2019-04-07T07:14:42.641Z,15.43
2019-04-07T07:15:37.216Z,15.49
2019-04-07T07:16:41.314Z,15.46
2019-04-07T07:17:37.650Z,15.61
2019-04-07T07:18:37.127Z,15.54
2019-04-07T07:19:37.935Z,15.57
2019-04-07T07:20:37.300Z,15.47
2019-04-07T07:21:39.261Z,15.47
2019-04-07T07:22:40.219Z,15.57
2019-04-07T07:23:37.472Z,15.57
2019-04-07T07:24:37.123Z,15.61
2019-04-07T07:25:37.276Z,15.57
2019-04-07T07:26:37.108Z,15.58
2019-04-07T07:27:40.480Z,15.59
2019-04-07T07:28:37.102Z,15.72
2019-04-07T07:29:37.102Z,15.79
2019-04-07T07:30:37.152Z,15.80
2019-04-07T07:31:37.097Z,15.88
2019-04-07T07:32:37.321Z,15.82
2019-04-07T07:33:40.416Z,15.83
2019-04-07T07:34:39.894Z,15.77
2019-04-07T07:35:37.642Z,15.83
2019-04-07T07:36:37.128Z,15.61
2019-04-07T07:37:37.760Z,15.76
2019-04-07T07:38:37.081Z,15.72
2019-04-07T07:39:37.082Z,15.73
2019-04-07T07:40:37.439Z,15.75
2019-04-07T07:41:37.746Z,15.70
2019-04-07T07:42:37.716Z,15.79
2019-04-07T07:43:37.074Z,15.86
2019-04-07T07:44:38.514Z,15.91
2019-04-07T07:45:37.204Z,16.02
2019-04-07T07:46:37.570Z,16.00
2019-04-07T07:47:37.241Z,16.02
2019-04-07T07:48:37.683Z,16.05
2019-04-07T07:49:40.064Z,16.05
2019-04-07T07:50:38.726Z,16.08
2019-04-07T07:51:39.276Z,16.13
2019-04-07T07:52:37.679Z,16.15
2019-04-07T07:53:37.263Z,16.01
2019-04-07T07:54:37.053Z,16.12
2019-04-07T07:55:37.857Z,16.20
2019-04-07T07:56:37.849Z,16.12
2019-04-07T07:57:37.099Z,16.17
2019-04-07T07:58:37.091Z,16.28
2019-04-07T07:59:38.437Z,16.47
2019-04-07T08:00:39.853Z,16.41
2019-04-07T08:01:37.346Z,16.28
2019-04-07T08:02:37.040Z,16.32
2019-04-07T08:03:37.040Z,16.31
2019-04-07T08:04:37.729Z,16.32
2019-04-07T08:05:37.588Z,16.29
2019-04-07T08:06:39.145Z,16.35
2019-04-07T08:07:37.040Z,16.46
2019-04-07T08:08:37.283Z,16.50
2019-04-07T08:09:37.088Z,16.51
2019-04-07T08:10:37.557Z,16.60
2019-04-07T08:11:37.383Z,16.58
2019-04-07T08:12:37.106Z,16.69
2019-04-07T08:13:42.030Z,16.68
2019-04-07T08:14:37.143Z,16.61
2019-04-07T08:15:37.028Z,16.58
2019-04-07T08:16:37.399Z,16.61
2019-04-07T08:17:37.653Z,16.72
2019-04-07T08:18:40.364Z,16.83
2019-04-07T08:19:40.674Z,17.05
2019-04-07T08:20:37.413Z,16.97
2019-04-07T08:21:37.019Z,17.09
2019-04-07T08:22:42.379Z,17.01
2019-04-07T08:23:37.395Z,17.11
2019-04-07T08:24:37.252Z,17.12
2019-04-07T08:25:37.830Z,16.99
2019-04-07T08:26:37.014Z,16.97
2019-04-07T08:27:37.029Z,16.86
2019-04-07T08:28:37.010Z,16.96
2019-04-07T08:29:37.484Z,16.97
2019-04-07T08:30:37.197Z,17.06
2019-04-07T08:31:37.266Z,17.09
2019-04-07T08:32:37.010Z,17.09
2019-04-07T08:33:37.428Z,17.12
2019-04-07T08:34:37.192Z,17.24
2019-04-07T08:35:39.458Z,17.31
2019-04-07T08:36:37.005Z,17.41
2019-04-07T08:37:37.006Z,17.63
2019-04-07T08:38:37.585Z,17.86
2019-04-07T08:39:37.503Z,18.00
2019-04-07T08:40:38.919Z,18.20
2019-04-07T08:41:39.683Z,18.70
2019-04-07T08:42:37.085Z,19.37
2019-04-07T08:43:37.361Z,19.94
2019-04-07T08:44:37.032Z,20.24
2019-04-07T08:45:37.124Z,20.48
2019-04-07T08:46:40.935Z,20.65
2019-04-07T08:47:37.015Z,21.09
2019-04-07T08:48:37.446Z,20.56
2019-04-07T08:49:37.022Z,20.70
2019-04-07T08:50:37.454Z,20.19
2019-04-07T08:51:37.028Z,20.88
2019-04-07T08:52:40.783Z,20.99
2019-04-07T08:53:37.718Z,21.55
2019-04-07T08:54:37.042Z,21.35
2019-04-07T08:55:37.051Z,21.77
2019-04-07T08:56:37.608Z,21.64
2019-04-07T08:57:37.256Z,22.22
2019-04-07T08:58:38.755Z,21.45
2019-04-07T08:59:39.880Z,20.70
2019-04-07T09:00:37.254Z,21.02
2019-04-07T09:01:37.211Z,21.40
2019-04-07T09:03:37.472Z,22.13
2019-04-07T09:04:37.106Z,22.72
2019-04-07T09:05:37.113Z,22.90
2019-04-07T09:06:37.484Z,22.63
2019-04-07T09:07:37.849Z,22.83
2019-04-07T09:08:38.177Z,22.94
2019-04-07T09:09:40.363Z,22.29
2019-04-07T09:10:37.244Z,22.54
2019-04-07T09:11:39.987Z,22.35
2019-04-07T09:12:37.173Z,22.38
2019-04-07T09:13:37.337Z,22.54
2019-04-07T09:14:39.482Z,22.35
2019-04-07T09:18:15.896Z,22.29
2019-04-07T09:19:14.952Z,22.39
2019-04-07T09:20:15.024Z,22.44
2019-04-07T09:21:15.626Z,22.26
2019-04-07T09:22:15.433Z,21.69
2019-04-07T09:23:14.938Z,22.33
2019-04-07T09:24:15.033Z,22.51
2019-04-07T09:25:15.053Z,22.91
2019-04-07T09:26:15.048Z,22.83
2019-04-07T09:27:19.425Z,22.62
2019-04-07T09:28:14.988Z,22.15
2019-04-07T09:29:15.160Z,22.60
2019-04-07T09:30:15.310Z,22.44
2019-04-07T09:31:15.019Z,22.41
2019-04-07T09:32:15.630Z,22.69
2019-04-07T09:33:15.040Z,22.66
2019-04-07T09:34:18.305Z,23.09
2019-04-07T09:35:15.541Z,22.88
2019-04-07T09:36:15.074Z,23.36
2019-04-07T09:37:17.400Z,23.48
2019-04-07T09:38:15.310Z,24.20
2019-04-07T09:39:15.614Z,24.26
2019-04-07T09:40:17.419Z,23.87
2019-04-07T09:41:17.195Z,22.70
2019-04-07T09:42:15.887Z,22.98
2019-04-07T09:44:19.736Z,23.47
2019-04-07T09:45:15.186Z,23.39
2019-04-07T09:46:15.187Z,22.80
2019-04-07T09:47:16.293Z,23.00
2019-04-07T09:48:17.699Z,22.18
2019-04-07T09:49:15.221Z,22.15
2019-04-07T09:50:15.239Z,22.80
2019-04-07T09:51:15.367Z,22.57
2019-04-07T09:52:16.113Z,22.88
2019-04-07T09:53:17.053Z,23.44
2019-04-07T09:54:15.279Z,24.35
2019-04-07T09:55:15.289Z,24.42
2019-04-07T09:56:15.302Z,23.63
2019-04-07T09:57:15.667Z,23.58
2019-04-07T09:58:16.069Z,22.62
2019-04-07T09:59:18.166Z,22.96
2019-04-07T10:00:15.948Z,23.43
2019-04-07T10:01:18.943Z,22.93
2019-04-07T10:02:15.647Z,23.50
2019-04-07T10:03:16.257Z,23.86
2019-04-07T10:04:15.393Z,23.51
2019-04-07T10:05:15.408Z,23.43
2019-04-07T10:06:15.416Z,23.47
2019-04-07T10:07:16.498Z,23.31
2019-04-07T10:08:17.938Z,23.68
2019-04-07T10:09:15.786Z,23.76
2019-04-07T10:10:15.929Z,24.32
2019-04-07T10:11:16.010Z,23.59
2019-04-07T10:12:15.510Z,23.68
2019-04-07T10:13:16.198Z,23.43
2019-04-07T10:14:15.523Z,23.66
2019-04-07T10:15:15.519Z,23.05
2019-04-07T10:16:15.528Z,23.44
2019-04-07T10:17:16.447Z,23.40
2019-04-07T10:18:15.587Z,24.23
2019-04-07T10:19:15.565Z,24.36
2019-04-07T10:20:15.573Z,23.65
2019-04-07T10:21:15.665Z,23.58
2019-04-07T10:22:15.596Z,23.08
2019-04-07T10:23:16.225Z,22.84
2019-04-07T10:24:16.897Z,23.05
2019-04-07T10:25:15.630Z,23.27
2019-04-07T10:26:15.753Z,23.20
2019-04-07T10:27:17.531Z,22.94
2019-04-07T10:28:15.664Z,22.76
2019-04-07T10:29:16.539Z,23.24
2019-04-07T10:30:15.719Z,23.71
2019-04-07T10:31:19.287Z,22.50
2019-04-07T10:32:15.711Z,22.45
2019-04-07T10:33:15.831Z,22.55
2019-04-07T10:34:16.211Z,23.08
2019-04-07T10:35:15.741Z,22.80
2019-04-07T10:36:15.930Z,22.93
2019-04-07T10:37:16.788Z,23.50
2019-04-07T10:38:15.773Z,23.44
2019-04-07T10:39:15.784Z,22.87
2019-04-07T10:40:19.569Z,23.41
2019-04-07T10:41:15.926Z,23.62
2019-04-07T10:42:15.816Z,24.03
2019-04-07T10:43:15.825Z,24.63
2019-04-07T10:44:16.122Z,24.81
2019-04-07T10:45:16.327Z,25.04
2019-04-07T10:46:15.858Z,25.18
2019-04-07T10:47:16.027Z,24.68
2019-04-07T10:48:15.888Z,23.86
2019-04-07T10:49:15.892Z,23.84
2019-04-07T10:50:16.729Z,23.10
2019-04-07T10:51:15.909Z,22.43
2019-04-07T10:52:15.927Z,21.88
2019-04-07T10:53:16.008Z,21.85
2019-04-07T10:54:16.091Z,22.10
2019-04-07T10:55:16.620Z,22.14
2019-04-07T10:56:16.323Z,22.25
2019-04-07T10:57:16.578Z,22.13
2019-04-07T10:58:16.354Z,22.06
2019-04-07T10:59:16.131Z,21.96
2019-04-07T11:00:15.995Z,22.04
2019-04-07T11:01:16.755Z,22.18
2019-04-07T11:02:16.803Z,22.35
2019-04-07T11:03:16.394Z,22.17
2019-04-07T11:04:16.028Z,22.32
2019-04-07T11:05:16.037Z,22.35
2019-04-07T11:06:16.714Z,22.17
2019-04-07T11:07:18.291Z,22.38
2019-04-07T11:08:16.669Z,22.70
2019-04-07T11:09:16.660Z,22.88
2019-04-07T11:10:16.743Z,22.75
2019-04-07T11:11:16.165Z,23.02
2019-04-07T11:12:16.092Z,22.70
2019-04-07T11:13:16.777Z,22.53
2019-04-07T11:14:16.166Z,21.92
2019-04-07T11:15:16.710Z,21.75
2019-04-07T11:16:16.125Z,21.93
2019-04-07T11:17:16.243Z,22.02
2019-04-07T11:18:16.473Z,21.70
2019-04-07T11:19:16.154Z,21.57
2019-04-07T11:20:16.958Z,21.66
2019-04-07T11:21:16.604Z,21.79
2019-04-07T11:22:16.170Z,21.76
2019-04-07T11:23:16.595Z,21.88
2019-04-07T11:24:16.567Z,21.82
2019-04-07T11:25:16.457Z,22.22
2019-04-07T11:26:16.691Z,22.25
2019-04-07T11:27:16.711Z,22.13
2019-04-07T11:28:16.542Z,21.82
2019-04-07T11:29:16.590Z,21.62
2019-04-07T11:30:16.939Z,21.39
2019-04-07T11:31:16.781Z,21.22
2019-04-07T11:32:16.450Z,21.22
2019-04-07T11:33:16.288Z,21.27
2019-04-07T11:34:16.249Z,21.37
2019-04-07T11:35:17.037Z,21.37
2019-04-07T11:38:43.020Z,21.79
2019-04-07T11:39:43.493Z,21.75
2019-04-07T11:40:48.917Z,21.80
2019-04-07T11:41:43.538Z,21.70
2019-04-07T11:42:42.987Z,21.43
2019-04-07T11:43:42.916Z,21.50
2019-04-07T11:44:42.920Z,21.32
2019-04-07T11:45:53.282Z,21.30
2019-04-07T11:46:43.193Z,21.55
2019-04-07T11:47:43.030Z,21.60
2019-04-07T11:48:43.262Z,21.62
2019-04-07T11:49:44.632Z,21.25
2019-04-07T11:50:42.949Z,21.36
2019-04-07T11:51:42.953Z,21.61
2019-04-07T11:52:42.959Z,21.79
2019-04-07T11:53:44.169Z,21.85
2019-04-07T11:54:43.766Z,21.96
2019-04-07T11:55:43.175Z,21.72
2019-04-07T11:56:43.407Z,21.80
2019-04-07T11:57:45.091Z,21.73
2019-04-07T11:58:43.050Z,21.61
2019-04-07T11:59:43.617Z,21.60
2019-04-07T12:00:42.995Z,21.51
2019-04-07T12:01:46.022Z,21.12
2019-04-07T12:02:44.247Z,21.03
2019-04-07T12:03:43.011Z,21.15
2019-04-07T12:04:43.624Z,21.29
2019-04-07T12:05:43.017Z,21.27
2019-04-07T12:06:46.578Z,21.17
2019-04-07T12:07:43.024Z,20.93
2019-04-07T12:08:43.032Z,20.95
2019-04-07T12:09:43.134Z,20.75
2019-04-07T12:10:54.912Z,20.82
2019-04-07T12:11:43.042Z,20.80
2019-04-07T12:12:43.714Z,20.96
2019-04-07T12:13:44.608Z,20.96
2019-04-07T12:14:43.099Z,21.06
2019-04-07T12:15:43.057Z,21.24
2019-04-07T12:16:43.685Z,21.50
2019-04-07T12:17:43.540Z,21.51
2019-04-07T12:18:44.001Z,21.58
2019-04-07T12:19:43.076Z,21.75
2019-04-07T12:20:43.830Z,21.70
2019-04-07T12:21:43.723Z,21.69
2019-04-07T12:22:45.479Z,21.82
2019-04-07T12:23:43.337Z,21.92
2019-04-07T12:24:43.400Z,21.93
2019-04-07T12:25:43.100Z,22.04
2019-04-07T12:26:43.747Z,22.13
2019-04-07T12:27:43.906Z,22.00
2019-04-07T12:28:43.108Z,21.95
2019-04-07T12:29:44.519Z,21.83
2019-04-07T12:30:43.658Z,21.72
2019-04-07T12:31:43.353Z,21.54
2019-04-07T12:32:43.430Z,21.40
2019-04-07T12:33:43.244Z,21.18
2019-04-07T12:34:45.844Z,21.33
2019-04-07T12:35:43.138Z,21.40
2019-04-07T12:36:43.143Z,21.27
2019-04-07T12:37:43.734Z,21.27
2019-04-07T12:38:44.686Z,21.22
2019-04-07T12:39:43.155Z,21.17
2019-04-07T12:40:43.159Z,21.07
2019-04-07T12:41:43.672Z,21.03
2019-04-07T12:42:43.168Z,21.03
2019-04-07T12:43:46.852Z,21.17
2019-04-07T12:44:43.173Z,21.14
2019-04-07T12:45:43.835Z,21.36
2019-04-07T12:46:43.182Z,21.48
2019-04-07T12:47:44.008Z,21.64
2019-04-07T12:48:43.540Z,21.64
2019-04-07T12:49:45.512Z,21.52
2019-04-07T12:50:43.637Z,21.75
2019-04-07T12:51:44.104Z,21.58
2019-04-07T12:52:43.948Z,21.61
2019-04-07T12:53:43.369Z,21.70
2019-04-07T12:54:43.745Z,21.83
2019-04-07T12:55:44.024Z,21.88
2019-04-07T12:56:43.427Z,21.95
2019-04-07T12:57:43.535Z,22.07
2019-04-07T12:58:46.018Z,21.92
2019-04-07T12:59:47.761Z,21.88